createdAt,value
2018-09-21T00:00:59.729Z,21.00
2018-09-21T00:03:29.915Z,21.00
2018-09-21T00:06:01.398Z,21.00
2018-09-21T00:08:31.899Z,21.00
2018-09-21T00:11:02.292Z,21.00
2018-09-21T00:13:32.045Z,20.90
2018-09-21T00:16:02.159Z,20.90
2018-09-21T00:18:32.515Z,20.90
2018-09-21T00:21:02.964Z,20.80
2018-09-21T00:23:33.532Z,20.80
2018-09-21T00:26:03.303Z,20.80
2018-09-21T00:28:33.582Z,20.90
2018-09-21T00:31:03.892Z,20.90
2018-09-21T00:33:33.956Z,20.80
2018-09-21T00:36:05.405Z,20.80
2018-09-21T00:38:35.584Z,20.80
2018-09-21T00:41:05.650Z,20.80
2018-09-21T00:43:37.332Z,20.80
2018-09-21T00:46:08.361Z,20.80
2018-09-21T00:48:38.380Z,20.70
2018-09-21T00:51:09.198Z,20.70
2018-09-21T00:53:38.935Z,20.90
2018-09-21T00:56:09.483Z,20.80
2018-09-21T00:58:40.887Z,20.90
2018-09-21T01:01:11.877Z,20.90
2018-09-21T01:03:42.169Z,21.00
2018-09-21T01:06:12.045Z,20.90
2018-09-21T01:08:43.539Z,20.90
2018-09-21T01:11:13.656Z,20.90
2018-09-21T01:13:43.880Z,20.80
2018-09-21T01:16:15.287Z,20.80
2018-09-21T01:18:45.364Z,20.90
2018-09-21T01:21:16.523Z,20.80
2018-09-21T01:23:47.037Z,20.80
2018-09-21T01:26:17.175Z,20.80
2018-09-21T01:28:47.705Z,20.80
2018-09-21T01:31:17.633Z,20.60
2018-09-21T01:33:47.703Z,20.60
2018-09-21T01:36:18.200Z,20.60
2018-09-21T01:38:48.455Z,20.60
2018-09-21T01:41:22.014Z,20.50
2018-09-21T01:43:52.434Z,20.50
2018-09-21T01:46:22.607Z,20.40
2018-09-21T01:48:53.508Z,20.40
2018-09-21T01:51:25.347Z,20.40
2018-09-21T01:53:55.556Z,20.40
2018-09-21T01:56:25.646Z,20.30
2018-09-21T01:58:56.629Z,20.40
2018-09-21T02:01:26.927Z,20.40
2018-09-21T02:03:58.096Z,20.40
2018-09-21T02:06:29.215Z,20.40
2018-09-21T02:09:03.439Z,20.30
2018-09-21T02:11:33.269Z,20.40
2018-09-21T02:14:03.828Z,20.40
2018-09-21T02:16:35.460Z,20.50
2018-09-21T02:19:06.279Z,20.40
2018-09-21T02:21:36.758Z,20.40
2018-09-21T02:24:06.876Z,20.40
2018-09-21T02:26:36.983Z,20.40
2018-09-21T02:29:08.267Z,20.40
2018-09-21T02:31:38.684Z,20.30
2018-09-21T02:34:09.101Z,20.40
2018-09-21T02:36:39.284Z,20.40
2018-09-21T02:39:11.753Z,20.40
2018-09-21T02:41:42.767Z,20.40
2018-09-21T02:44:15.481Z,20.30
2018-09-21T02:46:46.563Z,20.40
2018-09-21T02:49:18.073Z,20.40
2018-09-21T02:51:48.104Z,20.30
2018-09-21T02:54:18.145Z,20.30
2018-09-21T02:56:49.348Z,20.30
2018-09-21T02:59:19.776Z,20.30
2018-09-21T03:01:49.929Z,20.30
2018-09-21T03:04:22.427Z,20.20
2018-09-21T03:06:54.040Z,20.20
2018-09-21T03:09:26.098Z,20.20
2018-09-21T03:11:57.076Z,20.10
2018-09-21T03:14:27.358Z,20.10
2018-09-21T03:16:57.206Z,20.10
2018-09-21T03:19:27.458Z,20.10
2018-09-21T03:21:59.369Z,20.10
2018-09-21T03:24:29.418Z,20.10
2018-09-21T03:26:59.616Z,20.10
2018-09-21T03:29:30.805Z,20.10
2018-09-21T03:32:00.684Z,20.00
2018-09-21T03:34:30.758Z,20.00
2018-09-21T03:37:01.418Z,20.00
2018-09-21T03:39:32.711Z,20.00
2018-09-21T03:42:02.780Z,20.00
2018-09-21T03:44:33.741Z,20.00
2018-09-21T03:47:04.177Z,20.00
2018-09-21T03:49:34.596Z,20.00
2018-09-21T03:52:05.824Z,20.10
2018-09-21T03:54:37.299Z,20.10
2018-09-21T03:57:09.140Z,20.10
2018-09-21T03:59:41.047Z,20.10
2018-09-21T04:02:12.420Z,20.10
2018-09-21T04:04:44.125Z,20.20
2018-09-21T04:07:16.432Z,20.30
2018-09-21T04:09:46.747Z,20.30
2018-09-21T04:12:17.046Z,20.40
2018-09-21T04:14:47.056Z,20.40
2018-09-21T04:17:17.575Z,20.50
2018-09-21T04:19:48.528Z,20.50
2018-09-21T04:22:18.923Z,20.50
2018-09-21T04:24:49.699Z,20.50
2018-09-21T04:27:20.290Z,20.60
2018-09-21T04:29:50.734Z,20.60
2018-09-21T04:32:21.196Z,20.70
2018-09-21T04:34:54.947Z,20.70
2018-09-21T04:37:25.735Z,20.80
2018-09-21T04:39:56.210Z,20.90
2018-09-21T04:42:26.308Z,20.90
2018-09-21T04:44:56.501Z,20.90
2018-09-21T04:47:26.587Z,20.90
2018-09-21T04:49:56.764Z,21.00
2018-09-21T04:52:27.929Z,21.00
2018-09-21T04:55:00.282Z,21.00
2018-09-21T04:57:30.279Z,21.10
2018-09-21T05:00:01.724Z,21.10
2018-09-21T05:02:33.127Z,21.10
2018-09-21T05:05:03.638Z,21.20
2018-09-21T05:07:35.088Z,21.20
2018-09-21T05:10:05.547Z,21.10
2018-09-21T05:12:36.052Z,21.10
2018-09-21T05:15:07.215Z,21.20
2018-09-21T05:17:39.075Z,21.20
2018-09-21T05:20:09.451Z,21.30
2018-09-21T05:22:40.039Z,21.40
2018-09-21T05:25:10.396Z,21.30
2018-09-21T05:27:40.953Z,21.40
2018-09-21T05:30:11.044Z,21.40
2018-09-21T05:32:41.484Z,21.40
2018-09-21T05:35:12.531Z,21.50
2018-09-21T05:37:44.979Z,21.50
2018-09-21T05:40:16.918Z,21.50
2018-09-21T05:42:46.749Z,21.50
2018-09-21T05:45:17.539Z,21.60
2018-09-21T05:47:47.675Z,21.70
2018-09-21T05:50:18.304Z,21.70
2018-09-21T05:52:48.706Z,21.80
2018-09-21T05:55:20.305Z,21.90
2018-09-21T05:57:58.314Z,21.90
2018-09-21T06:00:30.459Z,22.00
2018-09-21T06:03:01.098Z,21.90
2018-09-21T06:05:31.593Z,22.00
2018-09-21T06:08:01.915Z,21.90
2018-09-21T06:10:33.093Z,22.00
2018-09-21T06:13:04.836Z,22.10
2018-09-21T06:15:35.248Z,22.10
2018-09-21T06:18:05.925Z,22.10
2018-09-21T06:20:36.402Z,22.10
2018-09-21T06:23:07.139Z,22.10
2018-09-21T06:25:37.337Z,22.10
2018-09-21T06:28:07.770Z,22.20
2018-09-21T06:30:39.689Z,22.30
2018-09-21T06:33:09.993Z,22.30
2018-09-21T06:35:39.955Z,22.30
2018-09-21T06:38:10.505Z,22.30
2018-09-21T06:40:42.232Z,22.30
2018-09-21T06:43:14.377Z,22.30
2018-09-21T06:45:44.660Z,22.40
2018-09-21T06:48:14.976Z,22.40
2018-09-21T06:50:45.733Z,22.40
2018-09-21T06:53:15.825Z,22.40
2018-09-21T06:55:47.663Z,22.50
2018-09-21T06:58:17.893Z,22.50
2018-09-21T07:00:47.854Z,22.60
2018-09-21T07:03:18.699Z,22.60
2018-09-21T07:05:49.708Z,22.60
2018-09-21T07:08:20.452Z,22.70
2018-09-21T07:10:51.397Z,22.70
2018-09-21T07:13:21.578Z,22.80
2018-09-21T07:15:51.753Z,23.00
2018-09-21T07:18:22.961Z,23.00
2018-09-21T07:20:53.569Z,23.10
2018-09-21T07:23:24.197Z,23.10
2018-09-21T07:25:56.495Z,23.10
2018-09-21T07:28:26.995Z,23.00
2018-09-21T07:30:59.292Z,23.00
2018-09-21T07:33:29.596Z,23.00
2018-09-21T07:36:01.377Z,22.90
2018-09-21T07:38:34.201Z,22.80
2018-09-21T07:41:04.816Z,22.80
2018-09-21T07:43:37.367Z,22.80
2018-09-21T07:46:07.922Z,22.70
2018-09-21T07:48:38.035Z,22.70
2018-09-21T07:51:08.664Z,22.60
2018-09-21T07:53:39.172Z,22.60
2018-09-21T07:56:09.332Z,22.60
2018-09-21T07:58:40.321Z,22.60
2018-09-21T08:01:10.406Z,22.50
2018-09-21T08:03:40.642Z,22.50
2018-09-21T08:06:10.825Z,22.50
2018-09-21T08:08:43.068Z,22.50
2018-09-21T08:11:13.778Z,22.60
2018-09-21T08:13:44.068Z,22.60
2018-09-21T08:16:14.430Z,22.60
2018-09-21T08:18:44.684Z,22.50
2018-09-21T08:21:15.454Z,22.50
2018-09-21T08:23:47.647Z,22.30
2018-09-21T08:26:18.467Z,22.20
2018-09-21T08:28:49.908Z,22.20
2018-09-21T08:31:20.212Z,22.30
2018-09-21T08:33:50.874Z,22.30
2018-09-21T08:36:21.017Z,22.40
2018-09-21T08:38:51.247Z,22.50
2018-09-21T08:41:21.496Z,22.60
2018-09-21T08:43:53.739Z,22.60
2018-09-21T08:46:24.369Z,22.60
2018-09-21T08:48:54.656Z,22.50
2018-09-21T08:51:26.432Z,22.60
2018-09-21T08:53:57.458Z,22.60
2018-09-21T08:56:27.662Z,22.70
2018-09-21T08:58:57.964Z,22.50
2018-09-21T09:01:28.275Z,22.60
2018-09-21T09:03:58.845Z,22.50
2018-09-21T09:06:30.950Z,22.60
2018-09-21T09:09:03.103Z,22.60
2018-09-21T09:11:33.574Z,22.50
2018-09-21T09:14:03.520Z,22.30
2018-09-21T09:16:34.582Z,22.30
2018-09-21T09:19:07.060Z,22.20
2018-09-21T09:21:37.551Z,22.10
2018-09-21T09:24:09.573Z,21.50
2018-09-21T09:26:40.685Z,20.70
2018-09-21T09:29:10.960Z,20.20
2018-09-21T09:31:42.537Z,19.80
2018-09-21T09:34:12.446Z,19.00
2018-09-21T09:36:43.466Z,18.10
2018-09-21T09:39:15.130Z,17.50
2018-09-21T09:41:45.784Z,17.20
2018-09-21T09:44:16.659Z,16.90
2018-09-21T09:46:48.575Z,16.70
2018-09-21T09:49:18.905Z,16.60
2018-09-21T09:51:49.880Z,16.40
2018-09-21T09:54:20.202Z,16.10
2018-09-21T09:56:50.720Z,16.00
2018-09-21T09:59:23.765Z,15.80
2018-09-21T10:01:56.755Z,15.80
2018-09-21T10:04:30.014Z,16.00
2018-09-21T10:07:01.324Z,15.90
2018-09-21T10:09:31.950Z,15.60
2018-09-21T10:12:02.077Z,15.70
2018-09-21T10:14:35.151Z,15.60
2018-09-21T10:17:05.777Z,15.60
2018-09-21T10:19:36.064Z,15.70
2018-09-21T10:22:06.448Z,15.80
2018-09-21T10:24:39.285Z,15.90
2018-09-21T10:27:09.875Z,16.00
2018-09-21T10:29:41.396Z,16.10
2018-09-21T10:32:12.471Z,16.00
2018-09-21T10:34:43.504Z,16.10
2018-09-21T10:37:13.659Z,16.00
2018-09-21T10:39:45.980Z,15.90
2018-09-21T10:42:17.597Z,15.80
2018-09-21T10:44:47.591Z,16.00
2018-09-21T10:47:18.477Z,16.10
2018-09-21T10:49:49.416Z,16.00
2018-09-21T10:52:19.861Z,16.20
2018-09-21T10:54:51.344Z,16.20
2018-09-21T10:57:22.362Z,16.20
2018-09-21T10:59:52.568Z,16.20
2018-09-21T11:02:23.456Z,16.20
2018-09-21T11:04:53.643Z,16.10
2018-09-21T11:07:25.102Z,16.20
2018-09-21T11:09:56.045Z,16.30
2018-09-21T11:12:26.965Z,16.10
2018-09-21T11:14:58.954Z,16.10
2018-09-21T11:17:29.386Z,16.10
2018-09-21T11:19:59.244Z,16.00
2018-09-21T11:22:32.250Z,16.00
2018-09-21T11:25:04.226Z,16.00
2018-09-21T11:27:34.373Z,16.10
2018-09-21T11:30:07.853Z,16.10
2018-09-21T11:32:45.696Z,16.10
2018-09-21T11:35:16.176Z,16.20
2018-09-21T11:37:50.137Z,16.20
2018-09-21T11:40:20.526Z,16.40
2018-09-21T11:42:51.107Z,16.30
2018-09-21T11:45:24.093Z,16.40
2018-09-21T11:47:56.588Z,16.50
2018-09-21T11:50:27.415Z,16.60
2018-09-21T11:53:02.203Z,16.50
2018-09-21T11:55:32.978Z,16.40
2018-09-21T11:58:03.593Z,16.30
2018-09-21T12:00:35.531Z,16.30
2018-09-21T12:03:05.903Z,16.30
2018-09-21T12:05:38.397Z,16.30
2018-09-21T12:08:09.310Z,16.30
2018-09-21T12:10:39.395Z,16.20
2018-09-21T12:13:12.944Z,16.30
2018-09-21T12:15:50.983Z,16.40
2018-09-21T12:18:27.225Z,16.50
2018-09-21T12:21:05.223Z,16.60
2018-09-21T12:23:36.018Z,16.70
2018-09-21T12:26:10.107Z,16.70
2018-09-21T12:28:45.249Z,16.70
2018-09-21T12:31:32.527Z,16.60
2018-09-21T12:36:38.912Z,16.50
2018-09-21T12:39:16.491Z,16.40
2018-09-21T12:41:52.906Z,16.50
2018-09-21T12:44:24.649Z,16.70
2018-09-21T12:47:00.285Z,16.60
2018-09-21T12:49:33.193Z,16.70
2018-09-21T12:52:05.998Z,16.80
2018-09-21T12:54:45.816Z,16.80
2018-09-21T12:57:22.824Z,16.80
2018-09-21T13:00:01.225Z,16.70
2018-09-21T13:02:34.439Z,16.80
2018-09-21T13:05:06.539Z,16.70
2018-09-21T13:07:51.606Z,16.50
2018-09-21T13:10:26.689Z,16.50
2018-09-21T13:13:00.739Z,16.50
2018-09-21T13:15:40.031Z,16.60
2018-09-21T13:18:12.380Z,16.60
2018-09-21T13:20:43.209Z,16.60
2018-09-21T13:23:13.683Z,16.60
2018-09-21T13:25:44.562Z,16.70
2018-09-21T13:28:17.148Z,16.80
2018-09-21T13:30:47.868Z,16.80
2018-09-21T13:33:18.672Z,16.80
2018-09-21T13:35:48.667Z,16.90
2018-09-21T13:38:21.339Z,17.00
2018-09-21T13:40:52.048Z,17.00
2018-09-21T13:43:22.787Z,17.20
2018-09-21T13:45:54.608Z,17.00
2018-09-21T13:48:26.142Z,17.00
2018-09-21T13:50:56.836Z,17.00
2018-09-21T13:53:27.766Z,16.90
2018-09-21T13:55:58.308Z,16.80
2018-09-21T13:58:28.407Z,16.80
2018-09-21T14:01:17.143Z,16.90
2018-09-21T14:03:57.411Z,16.80
2018-09-21T14:06:27.519Z,16.90
2018-09-21T14:08:59.797Z,16.90
2018-09-21T14:11:31.571Z,17.00
2018-09-21T14:14:01.425Z,17.20
2018-09-21T14:16:32.783Z,17.40
2018-09-21T14:19:03.908Z,17.50
2018-09-21T14:21:39.118Z,17.60
2018-09-21T14:24:09.421Z,17.90
2018-09-21T14:26:39.924Z,17.90
2018-09-21T14:29:26.922Z,17.90
2018-09-21T14:32:09.896Z,18.10
2018-09-21T14:34:56.478Z,18.10
2018-09-21T14:37:28.508Z,17.80
2018-09-21T14:40:01.378Z,17.60
2018-09-21T14:42:34.343Z,17.40
2018-09-21T14:45:05.260Z,17.30
2018-09-21T14:47:35.692Z,17.20
2018-09-21T14:50:06.560Z,17.20
2018-09-21T14:52:36.484Z,17.30
2018-09-21T14:55:08.332Z,17.20
2018-09-21T14:57:38.123Z,17.40
2018-09-21T15:00:09.047Z,17.50
2018-09-21T15:02:40.878Z,17.50
2018-09-21T15:05:12.085Z,17.50
2018-09-21T15:07:42.987Z,17.40
2018-09-21T15:10:13.946Z,17.40
2018-09-21T15:12:44.084Z,17.40
2018-09-21T15:15:14.040Z,17.40
2018-09-21T15:17:44.306Z,17.20
2018-09-21T15:20:14.506Z,17.20
2018-09-21T15:22:45.257Z,17.10
2018-09-21T15:25:16.810Z,16.90
2018-09-21T15:27:47.392Z,16.90
2018-09-21T15:30:18.360Z,17.00
2018-09-21T15:32:49.494Z,17.00
2018-09-21T15:35:19.780Z,16.90
2018-09-21T15:37:50.916Z,16.80
2018-09-21T15:40:23.957Z,16.80
2018-09-21T15:42:54.081Z,16.80
2018-09-21T15:45:27.678Z,16.70
2018-09-21T15:48:01.434Z,16.60
2018-09-21T15:50:32.976Z,16.50
2018-09-21T15:53:07.608Z,16.50
2018-09-21T15:55:40.976Z,16.50
2018-09-21T15:58:14.569Z,16.60
2018-09-21T16:00:52.113Z,16.60
2018-09-21T16:03:23.738Z,16.60
2018-09-21T16:05:54.108Z,16.50
2018-09-21T16:08:28.497Z,16.40
2018-09-21T16:10:59.900Z,16.30
2018-09-21T16:13:30.768Z,16.10
2018-09-21T16:16:02.067Z,16.00
2018-09-21T16:18:31.984Z,16.00
2018-09-21T16:21:03.295Z,16.00
2018-09-21T16:23:34.424Z,15.90
2018-09-21T16:26:04.797Z,15.80
2018-09-21T16:28:36.399Z,15.80
2018-09-21T16:31:07.601Z,15.80
2018-09-21T16:33:42.287Z,15.70
2018-09-21T16:36:22.683Z,15.80
2018-09-21T16:38:53.357Z,15.70
2018-09-21T16:41:28.978Z,15.60
2018-09-21T16:43:59.076Z,15.60
2018-09-21T16:46:29.340Z,15.50
2018-09-21T16:49:04.849Z,15.50
2018-09-21T16:51:35.916Z,15.50
2018-09-21T16:54:05.781Z,15.40
2018-09-21T16:56:38.755Z,15.30
2018-09-21T16:59:10.885Z,15.30
2018-09-21T17:01:42.288Z,15.30
2018-09-21T17:04:15.549Z,15.20
2018-09-21T17:06:49.109Z,15.20
2018-09-21T17:09:20.278Z,15.20
2018-09-21T17:11:52.098Z,15.10
2018-09-21T17:14:23.848Z,15.00
2018-09-21T17:16:55.108Z,15.00
2018-09-21T17:19:25.665Z,14.90
2018-09-21T17:21:56.035Z,14.80
2018-09-21T17:24:27.767Z,14.80
2018-09-21T17:27:00.317Z,14.80
2018-09-21T17:29:32.768Z,14.80
2018-09-21T17:32:04.036Z,14.70
2018-09-21T17:34:35.432Z,14.70
2018-09-21T17:37:05.529Z,14.60
2018-09-21T17:39:36.209Z,14.60
2018-09-21T17:42:08.800Z,14.60
2018-09-21T17:44:40.713Z,14.60
2018-09-21T17:47:11.175Z,14.60
2018-09-21T17:49:41.497Z,14.50
2018-09-21T17:52:12.667Z,14.50
2018-09-21T17:54:42.960Z,14.50
2018-09-21T17:57:14.645Z,14.40
2018-09-21T17:59:45.109Z,14.30
2018-09-21T18:02:17.613Z,14.30
2018-09-21T18:04:51.496Z,14.30
2018-09-21T18:07:23.290Z,14.30
2018-09-21T18:09:54.988Z,14.20
2018-09-21T18:12:27.210Z,14.20
2018-09-21T18:14:57.930Z,14.20
2018-09-21T18:17:28.900Z,14.20
2018-09-21T18:19:59.866Z,14.20
2018-09-21T18:22:30.353Z,14.20
2018-09-21T18:25:00.652Z,14.20
2018-09-21T18:27:31.219Z,14.30
2018-09-21T18:30:03.282Z,14.30
2018-09-21T18:32:34.271Z,14.30
2018-09-21T18:35:04.751Z,14.30
2018-09-21T18:37:37.163Z,14.30
2018-09-21T18:40:07.918Z,14.20
2018-09-21T18:42:38.548Z,14.30
2018-09-21T18:45:08.845Z,14.20
2018-09-21T18:47:40.044Z,14.10
2018-09-21T18:50:12.622Z,13.90
2018-09-21T18:52:44.181Z,13.40
2018-09-21T18:55:14.076Z,13.10
2018-09-21T18:57:44.661Z,12.80
2018-09-21T19:00:15.423Z,12.50
2018-09-21T19:02:46.422Z,12.40
2018-09-21T19:05:17.584Z,12.30
2018-09-21T19:07:47.892Z,12.30
2018-09-21T19:10:18.340Z,12.30
2018-09-21T19:12:50.211Z,12.10
2018-09-21T19:15:21.088Z,12.00
2018-09-21T19:17:54.003Z,12.00
2018-09-21T19:20:24.789Z,12.10
2018-09-21T19:22:55.073Z,12.10
2018-09-21T19:25:25.026Z,12.00
2018-09-21T19:27:55.868Z,12.00
2018-09-21T19:30:27.189Z,11.90
2018-09-21T19:32:57.595Z,11.90
2018-09-21T19:35:27.934Z,12.00
2018-09-21T19:37:58.425Z,11.90
2018-09-21T19:40:28.596Z,11.90
2018-09-21T19:43:00.452Z,11.60
2018-09-21T19:45:31.529Z,11.60
2018-09-21T19:48:02.101Z,11.70
2018-09-21T19:50:33.725Z,11.70
2018-09-21T19:53:05.107Z,11.70
2018-09-21T19:55:35.816Z,11.80
2018-09-21T19:58:07.568Z,11.70
2018-09-21T20:00:40.528Z,11.50
2018-09-21T20:03:11.256Z,11.20
2018-09-21T20:05:41.535Z,11.10
2018-09-21T20:08:12.798Z,11.00
2018-09-21T20:10:44.251Z,10.90
2018-09-21T20:13:15.617Z,11.00
2018-09-21T20:15:45.892Z,11.00
2018-09-21T20:18:16.134Z,10.90
2018-09-21T20:20:46.797Z,10.90
2018-09-21T20:23:16.704Z,11.00
2018-09-21T20:25:46.949Z,11.00
2018-09-21T20:28:20.372Z,11.10
2018-09-21T20:33:01.086Z,11.10
2018-09-21T20:35:32.880Z,11.00
2018-09-21T20:38:03.046Z,10.90
2018-09-21T20:40:33.410Z,11.00
2018-09-21T20:43:04.623Z,11.10
2018-09-21T20:45:35.232Z,11.20
2018-09-21T20:48:05.485Z,11.30
2018-09-21T20:50:35.766Z,11.30
2018-09-21T20:53:06.326Z,11.30
2018-09-21T20:55:37.608Z,11.30
2018-09-21T20:58:09.848Z,11.30
2018-09-21T21:00:40.703Z,11.30
2018-09-21T21:03:11.865Z,11.30
2018-09-21T21:05:44.132Z,11.40
2018-09-21T21:08:28.105Z,11.40
2018-09-21T21:10:58.679Z,11.40
2018-09-21T21:13:30.709Z,11.40
2018-09-21T21:16:01.053Z,11.40
2018-09-21T21:18:30.988Z,11.30
2018-09-21T21:21:04.036Z,11.30
2018-09-21T21:23:34.565Z,11.20
2018-09-21T21:26:05.483Z,11.20
2018-09-21T21:28:35.869Z,11.10
2018-09-21T21:31:06.425Z,11.00
2018-09-21T21:33:36.483Z,11.10
2018-09-21T21:36:06.951Z,11.00
2018-09-21T21:38:37.529Z,11.00
2018-09-21T21:41:07.816Z,10.90
2018-09-21T21:43:38.676Z,10.90
2018-09-21T21:46:09.902Z,11.00
2018-09-21T21:48:40.820Z,11.00
2018-09-21T21:51:11.652Z,11.10
2018-09-21T21:53:43.642Z,11.00
2018-09-21T21:56:15.223Z,10.90
2018-09-21T21:58:47.568Z,10.90
2018-09-21T22:01:23.496Z,10.90
2018-09-21T22:03:54.819Z,11.00
2018-09-21T22:06:26.863Z,11.00
2018-09-21T22:08:58.437Z,11.00
2018-09-21T22:11:34.770Z,11.00
2018-09-21T22:14:08.313Z,11.00
2018-09-21T22:16:38.392Z,11.00
2018-09-21T22:19:09.646Z,11.00
2018-09-21T22:21:41.944Z,11.00
2018-09-21T22:24:12.796Z,11.10
2018-09-21T22:26:43.534Z,11.10
2018-09-21T22:29:14.781Z,11.10
2018-09-21T22:31:44.879Z,11.10
2018-09-21T22:34:15.094Z,11.20
2018-09-21T22:36:45.044Z,11.20
2018-09-21T22:39:15.936Z,11.20
2018-09-21T22:41:46.337Z,11.20
2018-09-21T22:44:16.663Z,11.10
2018-09-21T22:46:47.253Z,11.10
2018-09-21T22:49:20.310Z,11.00
2018-09-21T22:51:50.720Z,11.00
2018-09-21T22:54:20.991Z,11.10
2018-09-21T22:56:50.914Z,11.10
2018-09-21T22:59:21.408Z,11.20
2018-09-21T23:01:51.828Z,11.20
2018-09-21T23:04:21.884Z,11.20
2018-09-21T23:06:52.074Z,11.10
2018-09-21T23:09:22.139Z,11.00
2018-09-21T23:11:53.711Z,11.00
2018-09-21T23:14:24.747Z,11.10
2018-09-21T23:16:54.989Z,11.10
2018-09-21T23:19:27.309Z,11.10
2018-09-21T23:21:58.376Z,11.00
2018-09-21T23:24:28.871Z,11.00
2018-09-21T23:26:59.626Z,11.00
2018-09-21T23:29:31.250Z,10.90
2018-09-21T23:32:01.552Z,10.90
2018-09-21T23:34:31.919Z,11.00
2018-09-21T23:37:03.081Z,11.00
2018-09-21T23:39:33.092Z,11.00
2018-09-21T23:42:03.615Z,11.00
2018-09-21T23:44:33.736Z,11.00
2018-09-21T23:47:04.778Z,11.10
2018-09-21T23:49:34.764Z,11.00
2018-09-21T23:52:04.920Z,11.00
2018-09-21T23:54:35.362Z,11.20
2018-09-21T23:57:06.281Z,11.00
2018-09-21T23:59:36.441Z,11.10
